Aérodrome :
LOGIN :

S'inscrire | Disclaimer

   EN    FR    IT 

 










Légende :    VFR   VFR Marginal   IFR   IFR Intensif   IFR Très Intensif
Visi : 
Plafond : 
>= 8 km
>= 3000ft
5 à 8 km
1000 à 3000 ft
1500m à 5 km
500 à 1000 ft
800 à 1500m
200 à 500 ft
< 800m
< 200 ft
Symboles :   Orages  Brouillard  Fortes neiges  Fortes précipitations  Vent > 20 kt
SIGMETs :   Divers  Orages  Givrage  Turbulence  Onde Orograph.  Cendres Volcan.







- Altitude de l'aérodrome : 885 ft
- Code IATA : BAS
- Voir les cartes d'approche


LFSB - Bale-Mulhouse

DERNIER METAR :
  • 230830Z 14010KT 9999 FEW031 20/14 Q1025 NOSIG

METARs EXPIRÉS :
  • 230800Z 11007KT 070V140 9999 FEW031 19/14 Q1025 NOSIG
  • 230730Z VRB03KT 9999 FEW011 18/14 Q1025 NOSIG
  • 230700Z VRB01KT 9999 FEW033 16/14 Q1025 NOSIG
  • 230630Z VRB01KT 9999 FEW033 15/14 Q1025 NOSIG
  • 230600Z 00000KT 9999 MIFG FEW006 13/13 Q1025 NOSIG

TAF TAF LFSB
Valide du 23 à 06h jusqu'au 24 à 06h UTC


230500Z 2306/2406 VRB03KT CAVOK
BECMG 2306/2309 36008KT
BECMG 2318/2321 VRB02KT SCT030
Météo : +33 3 89 90 31 11
Pas de NOTAMs connus pour ce terrain.



MET'MAP, la Météo Aéronautique d'un coup d'oeil ! - Copyright ORBIFLY Décembre 2007 - Disclaimer

ORBIFLY MET'MAP TEAM :

Programmation & Développement : Alexandra Zaïnal
Conception & Développement : Baudouin d'Aumeries
Co-Programmation & Développement : Marc-Olivier Méhu
Soutien technique & logistique : Manuel Goepfert

Contact : metmap@orbifly.com




SOURCES & CREDITS :

   NOAA